Time;durP1;ratioP1;P1;durP2;ratioP2;P2;SDS_P1;SDS_P2;PMS_P1;PMS_P2;Temp;Humidity;BMP_temperature;BMP_pressure;BME280_temperature;BME280_humidity;BME280_pressure;Samples;Min_cycle;Max_cycle;Signal;HPM_P1;HPM_P2
2022/02/21 00:01:52;;;;;;;15.48;2.33;;;6.60;99.90;;;;;;5003488;28;20505;-62
2022/02/21 00:04:18;;;;;;;17.02;2.38;;;6.60;99.90;;;;;;5003971;28;20042;-62
2022/02/21 00:06:43;;;;;;;13.48;1.65;;;6.60;99.90;;;;;;5002808;28;20034;-63
2022/02/21 00:09:10;;;;;;;10.40;1.60;;;6.60;99.90;;;;;;5004913;28;20798;-62
2022/02/21 00:11:36;;;;;;;16.67;2.15;;;6.60;99.90;;;;;;4996786;28;20076;-63
2022/02/21 00:14:02;;;;;;;23.58;2.58;;;6.50;99.90;;;;;;5005365;28;20034;-63
2022/02/21 00:16:27;;;;;;;10.43;2.13;;;6.50;99.90;;;;;;5002198;28;20034;-62
2022/02/21 00:18:53;;;;;;;19.52;3.03;;;6.50;99.90;;;;;;5004080;28;20038;-62
2022/02/21 00:21:19;;;;;;;15.75;3.40;;;6.40;99.90;;;;;;5002787;28;20736;-63
2022/02/21 00:23:44;;;;;;;21.48;3.15;;;6.40;99.90;;;;;;5002710;28;20178;-62
2022/02/21 00:26:10;;;;;;;11.23;1.65;;;6.40;99.90;;;;;;5004628;28;20041;-62
2022/02/21 00:28:36;;;;;;;16.95;1.88;;;6.30;99.90;;;;;;5001383;28;20121;-62
2022/02/21 00:31:01;;;;;;;7.88;1.45;;;6.30;99.90;;;;;;5004643;28;20069;-63
2022/02/21 00:33:27;;;;;;;11.65;1.05;;;6.30;99.90;;;;;;5000317;28;20042;-63
2022/02/21 00:35:52;;;;;;;9.23;2.05;;;6.30;99.90;;;;;;5003755;28;20039;-63
2022/02/21 00:38:18;;;;;;;28.20;2.95;;;6.30;99.90;;;;;;5002573;28;20038;-62
2022/02/21 00:40:44;;;;;;;12.90;1.73;;;6.20;99.90;;;;;;5000739;28;20375;-63
2022/02/21 00:43:10;;;;;;;10.88;2.15;;;6.20;99.90;;;;;;5004345;28;20115;-63
2022/02/21 00:45:36;;;;;;;14.30;2.05;;;6.20;99.90;;;;;;5000818;28;20031;-63
2022/02/21 00:48:01;;;;;;;8.80;2.13;;;6.10;99.90;;;;;;5004472;28;20140;-62
2022/02/21 00:50:27;;;;;;;10.38;2.67;;;6.10;99.90;;;;;;5000933;28;20049;-63
2022/02/21 00:52:52;;;;;;;15.35;2.28;;;6.00;99.90;;;;;;5003078;28;20033;-63
2022/02/21 00:55:18;;;;;;;6.45;1.30;;;5.90;99.90;;;;;;5002437;28;20042;-62
2022/02/21 00:57:44;;;;;;;13.55;1.80;;;6.00;99.90;;;;;;5000655;28;20034;-63
2022/02/21 01:00:10;;;;;;;4.40;1.17;;;5.90;99.90;;;;;;5002936;28;20042;-62
2022/02/21 01:02:36;;;;;;;15.70;1.40;;;5.90;99.90;;;;;;5000897;28;20038;-62
2022/02/21 01:05:03;;;;;;;14.02;2.42;;;5.90;99.90;;;;;;5004148;28;20037;-63
2022/02/21 01:07:28;;;;;;;13.43;2.65;;;5.90;99.90;;;;;;5000320;28;20056;-62
2022/02/21 01:09:55;;;;;;;9.73;1.48;;;5.90;99.90;;;;;;4998863;28;20066;-63
2022/02/21 01:12:21;;;;;;;12.52;1.35;;;5.90;99.90;;;;;;5002935;28;20034;-62
2022/02/21 01:14:47;;;;;;;10.88;1.58;;;5.90;99.90;;;;;;5001357;28;20037;-62
2022/02/21 01:17:13;;;;;;;8.50;1.88;;;5.90;99.90;;;;;;5000911;28;20066;-63
2022/02/21 01:19:38;;;;;;;15.45;1.88;;;5.90;99.90;;;;;;5000808;28;20038;-66
2022/02/21 01:22:05;;;;;;;11.98;2.10;;;5.90;99.90;;;;;;5000710;28;20053;-62
2022/02/21 01:24:30;;;;;;;6.15;1.40;;;5.90;99.90;;;;;;5003571;28;20107;-65
2022/02/21 01:26:56;;;;;;;13.05;1.50;;;5.90;99.90;;;;;;5004161;28;20038;-62
2022/02/21 01:29:22;;;;;;;12.23;1.90;;;5.80;99.90;;;;;;5000793;28;20044;-62
2022/02/21 01:31:47;;;;;;;3.70;0.93;;;5.80;99.90;;;;;;5000495;28;20050;-63
2022/02/21 01:34:13;;;;;;;13.18;1.55;;;5.80;99.90;;;;;;5001687;28;20034;-63
2022/02/21 01:36:42;;;;;;;9.73;1.77;;;5.80;99.90;;;;;;5001043;28;20065;-63
2022/02/21 01:39:08;;;;;;;14.35;1.30;;;5.90;99.90;;;;;;5002213;28;20057;-63
2022/02/21 01:41:34;;;;;;;19.35;2.45;;;5.90;99.90;;;;;;5000431;28;20073;-62
2022/02/21 01:44:04;;;;;;;11.77;1.23;;;5.90;99.90;;;;;;5003090;28;20038;-62
2022/02/21 01:46:30;;;;;;;13.60;2.90;;;5.90;99.90;;;;;;5000321;28;20034;-63
2022/02/21 01:48:56;;;;;;;8.63;1.20;;;5.90;99.90;;;;;;5003018;28;20366;-63
2022/02/21 01:51:21;;;;;;;9.20;1.75;;;5.80;99.90;;;;;;5000108;28;20034;-63
2022/02/21 01:53:47;;;;;;;12.20;2.08;;;5.80;99.90;;;;;;5001994;28;20516;-62
2022/02/21 01:56:12;;;;;;;14.57;1.85;;;5.90;99.90;;;;;;5000192;28;20045;-62
2022/02/21 01:58:38;;;;;;;12.55;1.45;;;5.90;99.90;;;;;;5000517;28;20108;-63
2022/02/21 02:01:03;;;;;;;9.35;1.20;;;5.90;99.90;;;;;;5000613;28;20046;-63
2022/02/21 02:03:29;;;;;;;6.55;1.20;;;5.90;99.90;;;;;;4999716;28;20129;-63
2022/02/21 02:05:56;;;;;;;12.07;2.63;;;5.90;99.90;;;;;;5002827;28;20064;-63
2022/02/21 02:08:21;;;;;;;11.52;1.77;;;5.90;99.90;;;;;;4999990;28;20662;-63
2022/02/21 02:10:47;;;;;;;10.27;1.10;;;5.90;99.90;;;;;;5001479;28;20031;-63
2022/02/21 02:13:13;;;;;;;11.10;2.10;;;5.90;99.90;;;;;;5000786;28;20029;-63
2022/02/21 02:15:38;;;;;;;8.85;1.60;;;5.80;99.90;;;;;;5000612;28;20031;-64
2022/02/21 02:18:04;;;;;;;10.38;1.20;;;5.80;99.90;;;;;;5001884;28;20053;-65
2022/02/21 02:20:30;;;;;;;12.43;1.88;;;5.80;99.90;;;;;;4999416;28;20038;-63
2022/02/21 02:22:55;;;;;;;14.73;1.83;;;5.80;99.90;;;;;;5001459;28;20026;-63
2022/02/21 02:25:21;;;;;;;13.02;2.15;;;5.80;99.90;;;;;;4999638;28;20027;-64
2022/02/21 02:27:46;;;;;;;10.20;1.50;;;5.80;99.90;;;;;;5001484;28;20050;-63
2022/02/21 02:30:12;;;;;;;9.90;2.00;;;5.90;99.90;;;;;;5000207;28;20037;-63
2022/02/21 02:32:38;;;;;;;8.85;1.63;;;5.80;99.90;;;;;;5000149;28;20061;-63
2022/02/21 02:35:05;;;;;;;8.80;1.20;;;5.80;99.90;;;;;;5000184;28;20466;-63
2022/02/21 02:37:30;;;;;;;5.13;1.35;;;5.80;99.90;;;;;;4998511;28;20121;-63
2022/02/21 02:39:57;;;;;;;10.93;1.30;;;5.80;99.90;;;;;;5002062;28;20422;-64
2022/02/21 02:42:24;;;;;;;7.90;1.60;;;5.80;99.90;;;;;;4995393;28;20066;-63
2022/02/21 02:44:49;;;;;;;20.83;1.65;;;5.80;99.90;;;;;;5001866;28;20076;-63
2022/02/21 02:47:15;;;;;;;9.95;1.63;;;5.80;99.90;;;;;;4999597;28;20052;-63
2022/02/21 02:49:42;;;;;;;9.30;1.20;;;5.80;99.90;;;;;;5000552;28;20517;-63
2022/02/21 02:52:09;;;;;;;13.90;1.83;;;5.80;99.90;;;;;;4998996;28;20390;-63
2022/02/21 02:54:35;;;;;;;11.43;2.08;;;5.90;99.90;;;;;;4999684;28;20034;-63
2022/02/21 02:57:01;;;;;;;9.15;1.20;;;5.90;99.90;;;;;;5001678;28;20084;-64
2022/02/21 02:59:27;;;;;;;15.82;3.10;;;5.90;99.90;;;;;;4998609;28;20034;-64
2022/02/21 03:01:53;;;;;;;7.00;0.60;;;5.90;99.90;;;;;;5001226;28;20533;-63
2022/02/21 03:04:19;;;;;;;10.38;1.20;;;5.90;99.90;;;;;;4998774;28;20057;-63
2022/02/21 03:06:44;;;;;;;7.50;1.23;;;5.90;99.90;;;;;;5001030;28;20081;-63
2022/02/21 03:09:10;;;;;;;11.23;2.42;;;5.90;99.90;;;;;;5000147;28;20053;-63
2022/02/21 03:11:36;;;;;;;9.57;1.67;;;5.90;99.90;;;;;;4999257;28;20453;-63
2022/02/21 03:14:02;;;;;;;8.10;1.48;;;5.90;99.90;;;;;;5000622;28;20049;-64
2022/02/21 03:16:28;;;;;;;13.95;1.70;;;5.80;99.90;;;;;;4997419;28;20066;-63
2022/02/21 03:18:54;;;;;;;5.93;1.23;;;5.70;99.90;;;;;;5001658;28;20113;-63
2022/02/21 03:21:20;;;;;;;21.08;2.03;;;5.70;99.90;;;;;;4994021;28;20144;-63
2022/02/21 03:23:46;;;;;;;10.75;2.38;;;5.60;99.90;;;;;;4999691;28;20041;-63
2022/02/21 03:26:11;;;;;;;21.45;2.92;;;5.60;99.90;;;;;;4999337;28;20111;-63
2022/02/21 03:28:37;;;;;;;10.23;2.80;;;5.60;99.90;;;;;;4999890;28;20513;-65
2022/02/21 03:31:03;;;;;;;7.22;1.38;;;5.60;99.90;;;;;;4999956;28;20061;-63
2022/02/21 03:33:28;;;;;;;14.18;2.08;;;5.60;99.90;;;;;;4999040;28;20444;-63
2022/02/21 03:35:54;;;;;;;13.65;1.85;;;5.60;99.90;;;;;;5000889;28;20038;-63
2022/02/21 03:38:20;;;;;;;5.65;1.48;;;5.50;99.90;;;;;;4998662;28;20048;-62
2022/02/21 03:40:47;;;;;;;26.27;2.33;;;5.50;99.90;;;;;;5000508;28;20065;-64
2022/02/21 03:43:13;;;;;;;11.63;3.33;;;5.50;99.90;;;;;;5001540;28;20116;-63
2022/02/21 03:45:38;;;;;;;9.48;1.50;;;5.50;99.90;;;;;;4997177;28;20085;-63
2022/02/21 03:48:05;;;;;;;15.75;2.75;;;5.60;99.90;;;;;;4999979;28;20030;-63
2022/02/21 03:50:31;;;;;;;11.60;1.83;;;5.70;99.90;;;;;;5000155;28;20034;-64
2022/02/21 03:52:56;;;;;;;15.13;4.15;;;5.60;99.90;;;;;;4996894;28;20100;-64
2022/02/21 03:55:22;;;;;;;19.38;3.22;;;5.60;99.90;;;;;;5001442;28;20034;-63
2022/02/21 03:57:48;;;;;;;6.93;1.38;;;5.60;99.90;;;;;;4996548;28;20031;-63
2022/02/21 04:00:18;;;;;;;7.60;1.42;;;5.60;99.90;;;;;;5000538;28;20033;-63
2022/02/21 04:02:44;;;;;;;11.15;1.50;;;5.60;99.90;;;;;;4998252;28;20027;-63
2022/02/21 04:05:10;;;;;;;10.15;1.95;;;5.50;99.90;;;;;;5000466;28;20821;-63
2022/02/21 04:07:41;;;;;;;16.20;3.28;;;5.50;99.90;;;;;;4999288;28;20034;-64
2022/02/21 04:10:07;;;;;;;12.32;2.10;;;5.50;99.90;;;;;;4999882;28;20471;-64
2022/02/21 04:12:32;;;;;;;10.95;2.25;;;5.60;99.90;;;;;;4999022;28;20209;-64
2022/02/21 04:14:58;;;;;;;8.95;1.65;;;5.60;99.90;;;;;;4999013;28;20092;-63
2022/02/21 04:17:24;;;;;;;7.55;1.10;;;5.60;99.90;;;;;;5000760;28;20429;-63
2022/02/21 04:19:50;;;;;;;6.75;0.90;;;5.50;99.90;;;;;;4997276;28;20026;-63
2022/02/21 04:22:15;;;;;;;7.95;1.65;;;5.40;99.90;;;;;;5001083;28;20045;-63
2022/02/21 04:24:41;;;;;;;14.63;1.92;;;5.50;99.90;;;;;;4998095;28;20490;-63
2022/02/21 04:27:08;;;;;;;11.43;1.20;;;5.50;99.90;;;;;;4999860;28;20038;-63
2022/02/21 04:29:33;;;;;;;5.68;0.80;;;5.50;99.90;;;;;;4998991;28;20038;-63
2022/02/21 04:32:00;;;;;;;13.68;1.38;;;5.40;99.90;;;;;;5001374;28;20512;-63
2022/02/21 04:34:26;;;;;;;10.90;1.58;;;5.40;99.90;;;;;;4998364;28;20038;-63
2022/02/21 04:36:51;;;;;;;12.07;1.58;;;5.50;99.90;;;;;;5000092;28;20045;-63
2022/02/21 04:39:17;;;;;;;15.80;2.40;;;5.40;99.90;;;;;;4996369;28;20049;-63
2022/02/21 04:41:42;;;;;;;8.85;1.55;;;5.50;99.90;;;;;;4999583;28;20042;-63
2022/02/21 04:44:09;;;;;;;8.13;1.08;;;5.50;99.90;;;;;;5000752;28;20034;-63
2022/02/21 04:46:34;;;;;;;11.98;1.30;;;5.50;99.90;;;;;;4999707;28;20042;-63
2022/02/21 04:49:00;;;;;;;19.08;2.28;;;5.50;99.90;;;;;;5002867;28;20089;-64
2022/02/21 04:51:25;;;;;;;13.23;2.13;;;5.40;99.90;;;;;;5003180;28;20046;-63
2022/02/21 04:53:51;;;;;;;18.42;1.38;;;5.50;99.90;;;;;;5001179;28;20734;-63
2022/02/21 04:56:17;;;;;;;8.07;1.50;;;5.50;99.90;;;;;;5004314;28;20026;-64
2022/02/21 04:58:43;;;;;;;10.07;1.70;;;5.50;99.90;;;;;;5000662;28;20085;-64
2022/02/21 05:01:09;;;;;;;12.63;1.77;;;5.60;99.90;;;;;;5003128;28;20133;-64
2022/02/21 05:03:34;;;;;;;8.88;0.93;;;5.60;99.90;;;;;;5000180;28;20037;-63
2022/02/21 05:06:00;;;;;;;12.77;1.42;;;5.60;99.90;;;;;;5001089;28;20126;-63
2022/02/21 05:08:26;;;;;;;10.00;1.10;;;5.60;99.90;;;;;;5002793;28;20041;-63
2022/02/21 05:10:52;;;;;;;12.05;0.90;;;5.60;99.90;;;;;;5000159;28;20100;-64
2022/02/21 05:13:18;;;;;;;8.13;1.33;;;5.50;99.90;;;;;;5003958;28;20042;-64
2022/02/21 05:15:43;;;;;;;12.60;1.88;;;5.50;99.90;;;;;;5000342;28;20042;-65
2022/02/21 05:18:09;;;;;;;9.80;2.42;;;5.40;99.90;;;;;;5003476;28;20038;-64
2022/02/21 05:20:35;;;;;;;9.98;1.77;;;5.30;99.90;;;;;;5001045;28;20092;-64
2022/02/21 05:23:00;;;;;;;8.18;1.08;;;5.30;99.90;;;;;;5002293;28;20034;-64
2022/02/21 05:25:26;;;;;;;10.25;1.30;;;5.30;99.90;;;;;;5002026;28;20486;-64
2022/02/21 05:27:51;;;;;;;18.58;2.60;;;5.20;99.90;;;;;;4999844;28;20165;-64
2022/02/21 05:30:17;;;;;;;11.38;2.05;;;5.10;99.90;;;;;;5000627;28;20042;-64
2022/02/21 05:32:43;;;;;;;7.28;0.82;;;5.10;99.90;;;;;;4995825;28;20034;-64
2022/02/21 05:35:09;;;;;;;6.80;1.10;;;5.10;99.90;;;;;;4995655;28;20520;-63
2022/02/21 05:37:34;;;;;;;9.93;1.60;;;5.00;99.90;;;;;;5000183;28;20026;-64
2022/02/21 05:40:00;;;;;;;19.38;1.33;;;5.00;99.90;;;;;;4999939;28;20124;-64
2022/02/21 05:42:26;;;;;;;10.60;2.10;;;5.00;99.90;;;;;;5004562;28;20048;-64
2022/02/21 05:44:52;;;;;;;11.07;1.60;;;5.00;99.90;;;;;;5026980;23;20056;-64
2022/02/21 05:47:17;;;;;;;12.90;1.80;;;5.00;99.90;;;;;;5028887;28;20029;-62
2022/02/21 05:49:43;;;;;;;10.88;1.45;;;5.00;99.90;;;;;;5030258;28;20041;-61
2022/02/21 05:52:08;;;;;;;9.55;1.50;;;5.10;99.90;;;;;;5029667;28;20064;-62
2022/02/21 05:54:34;;;;;;;12.07;1.30;;;5.10;99.90;;;;;;5029663;28;20385;-62
2022/02/21 05:57:00;;;;;;;23.95;2.38;;;5.10;99.90;;;;;;5030220;28;20033;-61
2022/02/21 05:59:26;;;;;;;12.30;1.98;;;5.10;99.90;;;;;;5030150;28;20036;-63
2022/02/21 06:01:51;;;;;;;15.27;1.92;;;5.10;99.90;;;;;;5029696;28;20095;-62
2022/02/21 06:04:17;;;;;;;13.45;2.00;;;5.10;99.90;;;;;;5030726;28;20040;-61
2022/02/21 06:06:43;;;;;;;12.93;1.30;;;5.10;99.90;;;;;;5026092;28;20067;-63
2022/02/21 06:09:08;;;;;;;13.68;1.50;;;5.10;99.90;;;;;;5028807;28;20037;-62
2022/02/21 06:11:35;;;;;;;20.80;4.30;;;5.10;99.90;;;;;;5027646;28;20072;-63
2022/02/21 06:14:00;;;;;;;13.45;1.40;;;5.10;99.90;;;;;;5028231;28;20029;-62
2022/02/21 06:16:26;;;;;;;13.95;1.88;;;5.10;99.90;;;;;;5028398;28;20048;-61
2022/02/21 06:18:52;;;;;;;14.02;1.65;;;5.00;99.90;;;;;;5029679;28;20030;-64
2022/02/21 06:21:17;;;;;;;8.85;1.67;;;5.00;99.90;;;;;;5028799;28;20436;-63
2022/02/21 06:23:43;;;;;;;10.65;1.40;;;5.10;99.90;;;;;;5029065;28;20068;-62
2022/02/21 06:26:08;;;;;;;13.10;2.60;;;5.20;99.90;;;;;;5027591;28;20081;-62
2022/02/21 06:28:34;;;;;;;9.75;1.63;;;5.20;99.90;;;;;;5030638;28;20447;-62
2022/02/21 06:31:00;;;;;;;9.82;2.03;;;5.20;99.90;;;;;;5028356;28;20044;-62
2022/02/21 06:33:25;;;;;;;28.38;2.35;;;5.20;99.90;;;;;;5029696;28;20037;-62
2022/02/21 06:35:51;;;;;;;12.07;2.03;;;5.30;99.90;;;;;;5030775;28;20046;-60
2022/02/21 06:38:17;;;;;;;16.20;1.65;;;5.30;99.90;;;;;;5029421;28;20034;-61
2022/02/21 06:40:43;;;;;;;14.70;1.83;;;5.40;99.90;;;;;;5030010;28;20045;-62
2022/02/21 06:43:09;;;;;;;9.05;1.40;;;5.40;99.90;;;;;;5031478;28;20112;-63
2022/02/21 06:45:35;;;;;;;12.63;2.47;;;5.40;99.90;;;;;;5027563;28;20041;-62
2022/02/21 06:48:00;;;;;;;16.17;2.92;;;5.30;99.90;;;;;;5029398;28;20033;-63
2022/02/21 06:50:27;;;;;;;9.07;0.93;;;5.30;99.90;;;;;;5032154;28;20385;-62
2022/02/21 06:52:52;;;;;;;12.60;2.08;;;5.20;99.90;;;;;;5030141;28;20483;-63
2022/02/21 06:55:18;;;;;;;11.63;1.58;;;5.20;99.90;;;;;;5028519;28;20522;-62
2022/02/21 06:57:46;;;;;;;11.82;2.22;;;5.20;99.90;;;;;;5028357;28;20064;-64
2022/02/21 07:00:13;;;;;;;16.42;2.47;;;5.10;99.90;;;;;;5027862;28;20116;-62
2022/02/21 07:02:38;;;;;;;13.57;2.17;;;5.10;99.90;;;;;;5031483;28;20101;-61
2022/02/21 07:05:07;;;;;;;13.95;2.00;;;5.10;99.90;;;;;;5028770;28;20763;-62
2022/02/21 07:07:34;;;;;;;7.82;1.45;;;5.10;99.90;;;;;;5029021;28;20067;-61
2022/02/21 07:10:00;;;;;;;9.98;1.50;;;5.20;99.90;;;;;;5027503;28;20029;-62
2022/02/21 07:12:26;;;;;;;13.00;1.77;;;5.30;99.90;;;;;;5031193;28;20034;-64
2022/02/21 07:14:52;;;;;;;17.92;2.58;;;5.40;99.90;;;;;;5030739;28;20512;-61
2022/02/21 07:17:17;;;;;;;14.48;2.67;;;5.40;99.90;;;;;;5031129;28;20041;-62
2022/02/21 07:19:43;;;;;;;8.15;1.60;;;5.50;99.90;;;;;;5027786;28;20037;-62
2022/02/21 07:22:09;;;;;;;20.67;2.58;;;5.60;99.90;;;;;;5030657;28;20090;-62
2022/02/21 07:24:34;;;;;;;12.50;1.75;;;5.60;99.90;;;;;;5029796;28;20120;-63
2022/02/21 07:27:00;;;;;;;15.80;3.25;;;5.70;99.90;;;;;;5031679;28;20037;-62
2022/02/21 07:29:27;;;;;;;13.60;1.17;;;5.70;99.90;;;;;;5028388;28;20049;-61
2022/02/21 07:31:53;;;;;;;10.88;1.48;;;5.80;99.90;;;;;;5027209;28;20072;-61
2022/02/21 07:34:19;;;;;;;10.32;1.67;;;5.80;99.90;;;;;;5027420;28;20030;-64
2022/02/21 07:36:44;;;;;;;11.77;1.38;;;5.90;99.90;;;;;;5027550;28;20059;-62
2022/02/21 07:39:10;;;;;;;17.80;3.08;;;6.00;99.90;;;;;;5029883;28;20059;-62
2022/02/21 07:41:36;;;;;;;10.82;1.33;;;6.00;99.90;;;;;;5027537;28;20045;-61
2022/02/21 07:44:01;;;;;;;12.43;2.83;;;6.10;99.90;;;;;;5027958;28;20519;-61
2022/02/21 07:46:27;;;;;;;13.70;2.85;;;6.30;99.90;;;;;;5029243;28;20422;-62
2022/02/21 07:48:52;;;;;;;12.15;1.90;;;6.30;99.90;;;;;;5026951;28;20113;-62
2022/02/21 07:51:18;;;;;;;14.95;2.92;;;6.40;99.90;;;;;;5027851;28;20044;-63
2022/02/21 07:53:44;;;;;;;10.18;1.50;;;6.30;99.90;;;;;;5028980;28;20116;-63
2022/02/21 07:56:09;;;;;;;12.48;1.92;;;6.30;99.90;;;;;;5028420;28;20507;-62
2022/02/21 07:58:35;;;;;;;12.00;1.85;;;6.30;99.90;;;;;;5031652;28;20044;-61
2022/02/21 08:01:01;;;;;;;24.60;1.92;;;6.30;99.90;;;;;;5028470;28;20088;-63
2022/02/21 08:03:26;;;;;;;7.85;1.45;;;6.30;99.90;;;;;;5030218;28;20037;-62
2022/02/21 08:05:55;;;;;;;13.85;1.98;;;6.30;99.90;;;;;;5027604;28;20029;-64
2022/02/21 08:08:21;;;;;;;9.80;1.42;;;6.40;99.90;;;;;;5029145;28;20093;-63
2022/02/21 08:10:46;;;;;;;16.83;2.83;;;6.30;99.90;;;;;;5030423;28;20632;-63
2022/02/21 08:13:12;;;;;;;13.50;1.30;;;6.30;99.90;;;;;;5030370;28;20026;-62
2022/02/21 08:15:38;;;;;;;13.02;2.88;;;6.20;99.90;;;;;;5025944;28;20674;-60
2022/02/21 08:18:03;;;;;;;12.27;2.22;;;6.10;99.90;;;;;;5026654;28;20037;-62
2022/02/21 08:20:29;;;;;;;19.80;1.90;;;5.90;99.90;;;;;;5030263;28;20044;-64
2022/02/21 08:22:55;;;;;;;13.57;1.63;;;5.70;99.90;;;;;;5033107;28;20492;-62
2022/02/21 08:25:21;;;;;;;15.05;3.10;;;5.50;99.90;;;;;;5032002;28;20048;-63
2022/02/21 08:27:47;;;;;;;16.48;2.55;;;5.30;99.90;;;;;;5034027;28;20042;-62
2022/02/21 08:30:19;;;;;;;10.93;1.75;;;5.10;99.90;;;;;;5032066;28;20542;-61
2022/02/21 08:32:45;;;;;;;10.35;2.38;;;5.10;99.90;;;;;;5029850;28;20033;-62
2022/02/21 08:35:11;;;;;;;14.93;1.40;;;4.90;99.90;;;;;;5032742;28;20084;-63
2022/02/21 08:37:37;;;;;;;11.50;1.58;;;4.90;99.90;;;;;;5032524;28;20034;-62
2022/02/21 08:40:07;;;;;;;26.42;2.45;;;4.90;99.90;;;;;;5031238;28;20034;-63
2022/02/21 08:42:34;;;;;;;16.48;3.10;;;4.80;99.90;;;;;;5033433;28;20124;-68
2022/02/21 08:44:59;;;;;;;11.60;2.50;;;4.80;99.90;;;;;;5033594;28;20037;-62
2022/02/21 08:47:25;;;;;;;21.48;2.10;;;4.80;99.90;;;;;;5030508;28;20088;-61
2022/02/21 08:49:51;;;;;;;18.55;2.78;;;4.80;99.90;;;;;;5032523;28;20034;-62
2022/02/21 08:52:17;;;;;;;26.90;3.35;;;4.70;99.90;;;;;;5034635;28;20041;-61
2022/02/21 08:54:44;;;;;;;17.40;3.65;;;4.70;99.90;;;;;;5031973;28;20044;-61
2022/02/21 08:57:09;;;;;;;17.42;2.80;;;4.70;99.90;;;;;;5030204;28;20030;-62
2022/02/21 08:59:35;;;;;;;19.85;2.40;;;4.80;99.90;;;;;;5031091;28;20099;-62
2022/02/21 09:02:01;;;;;;;24.25;2.92;;;4.70;99.90;;;;;;5030591;28;20065;-62
2022/02/21 09:04:27;;;;;;;16.75;2.17;;;4.70;99.90;;;;;;5034116;28;20059;-62
2022/02/21 09:06:52;;;;;;;11.40;2.50;;;4.70;99.90;;;;;;5032300;28;20397;-61
2022/02/21 09:09:18;;;;;;;19.40;2.45;;;4.70;99.90;;;;;;5033160;28;20498;-62
2022/02/21 09:11:45;;;;;;;11.48;2.40;;;4.70;99.90;;;;;;5030669;28;20043;-63
2022/02/21 09:14:11;;;;;;;18.40;1.95;;;4.60;99.90;;;;;;5032057;28;20056;-62
2022/02/21 09:16:37;;;;;;;29.38;2.67;;;4.70;99.90;;;;;;5033665;28;20120;-62
2022/02/21 09:19:03;;;;;;;15.10;2.70;;;4.70;99.90;;;;;;5034309;28;20252;-62
2022/02/21 09:21:28;;;;;;;18.85;2.35;;;4.70;99.90;;;;;;5028710;28;20037;-61
2022/02/21 09:23:54;;;;;;;22.58;2.50;;;4.70;99.90;;;;;;5032289;28;20481;-62
2022/02/21 09:26:20;;;;;;;20.63;3.22;;;4.70;99.90;;;;;;5031904;28;20052;-61
2022/02/21 09:28:46;;;;;;;17.38;2.83;;;4.70;99.90;;;;;;5034829;28;20096;-62
2022/02/21 09:31:11;;;;;;;22.55;3.33;;;4.70;99.90;;;;;;5033773;28;20048;-62
2022/02/21 09:33:37;;;;;;;12.73;1.75;;;4.70;99.90;;;;;;5033860;28;20029;-62
2022/02/21 09:36:03;;;;;;;19.10;3.47;;;4.80;99.90;;;;;;5030343;28;20041;-61
2022/02/21 09:38:29;;;;;;;17.13;2.75;;;4.70;99.90;;;;;;5031704;28;20048;-61
2022/02/21 09:40:56;;;;;;;11.93;2.53;;;4.80;99.90;;;;;;5031002;28;20366;-62
2022/02/21 09:43:26;;;;;;;24.50;3.03;;;4.70;99.90;;;;;;5034234;28;20041;-62
2022/02/21 09:46:00;;;;;;;9.73;1.67;;;4.70;99.90;;;;;;5030957;28;20053;-62
2022/02/21 09:48:28;;;;;;;33.10;3.13;;;4.70;99.90;;;;;;5032276;28;20037;-63
2022/02/21 09:50:59;;;;;;;23.23;3.30;;;4.80;99.90;;;;;;5032596;28;20038;-61
2022/02/21 09:53:35;;;;;;;37.95;4.35;;;4.90;99.90;;;;;;5026860;28;20049;-62
2022/02/21 09:56:02;;;;;;;22.80;4.40;;;4.90;99.90;;;;;;5031702;28;20025;-65
2022/02/21 09:58:27;;;;;;;22.30;3.63;;;4.90;99.90;;;;;;5032259;28;20045;-62
2022/02/21 10:00:53;;;;;;;24.17;3.35;;;5.00;99.90;;;;;;5032719;28;20994;-62
2022/02/21 10:03:37;;;;;;;24.30;3.78;;;5.00;99.90;;;;;;5031813;28;20128;-62
2022/02/21 10:06:20;;;;;;;27.88;5.20;;;5.10;99.90;;;;;;5033242;28;20060;-62
2022/02/21 10:08:49;;;;;;;23.30;3.00;;;5.10;99.90;;;;;;5031133;28;20479;-64
2022/02/21 10:11:29;;;;;;;25.52;3.80;;;5.10;99.90;;;;;;5029578;28;20409;-63
2022/02/21 10:13:56;;;;;;;20.73;2.55;;;5.10;99.90;;;;;;5031678;28;20060;-62
2022/02/21 10:16:22;;;;;;;16.98;2.42;;;5.20;99.90;;;;;;5033100;28;20746;-64
2022/02/21 10:18:47;;;;;;;21.40;2.88;;;5.20;99.90;;;;;;5030871;28;20053;-62
2022/02/21 10:21:13;;;;;;;26.70;4.32;;;5.30;99.90;;;;;;5031516;28;20041;-62
2022/02/21 10:23:43;;;;;;;40.47;5.13;;;5.40;99.90;;;;;;5031765;28;20029;-64
2022/02/21 10:26:09;;;;;;;30.02;4.63;;;5.50;99.90;;;;;;5031601;28;20061;-62
2022/02/21 10:28:39;;;;;;;36.90;5.80;;;5.60;99.90;;;;;;5034457;28;20044;-63
2022/02/21 10:31:07;;;;;;;;;;;5.70;99.90;;;;;;5034055;28;20037;-65
2022/02/21 10:33:33;;;;;;;30.75;4.07;;;5.70;99.90;;;;;;5031745;28;19917;-63
2022/02/21 10:35:59;;;;;;;18.73;3.35;;;5.80;99.90;;;;;;5031048;28;20493;-61
2022/02/21 10:38:38;;;;;;;33.45;4.85;;;5.70;99.90;;;;;;5031625;28;20401;-62
2022/02/21 10:41:07;;;;;;;23.50;3.15;;;5.80;99.90;;;;;;5029092;28;20040;-62
2022/02/21 10:43:34;;;;;;;30.30;4.00;;;5.80;99.90;;;;;;5035072;28;20060;-62
2022/02/21 10:46:15;;;;;;;16.80;3.13;;;5.80;99.90;;;;;;5031256;28;20123;-61
2022/02/21 10:48:43;;;;;;;28.33;5.00;;;5.80;99.90;;;;;;5033815;28;20029;-62
2022/02/21 10:51:09;;;;;;;40.78;5.63;;;5.90;99.90;;;;;;5028023;28;20559;-60
2022/02/21 10:53:41;;;;;;;28.33;3.00;;;5.80;99.90;;;;;;5032518;28;20030;-63
2022/02/21 10:56:08;;;;;;;31.60;4.10;;;5.90;99.90;;;;;;5029730;28;20098;-63
2022/02/21 10:58:34;;;;;;;18.33;2.72;;;5.90;99.90;;;;;;5026041;28;20091;-61
2022/02/21 11:01:01;;;;;;;21.88;3.50;;;5.90;99.90;;;;;;5027592;28;20120;-62
2022/02/21 11:03:29;;;;;;;36.53;5.28;;;6.00;99.90;;;;;;5028396;28;20038;-63
2022/02/21 11:05:56;;;;;;;22.17;3.30;;;6.10;99.90;;;;;;5027877;28;20038;-61
2022/02/21 11:08:22;;;;;;;28.83;4.85;;;6.10;99.90;;;;;;5027629;28;20425;-62
2022/02/21 11:11:09;;;;;;;26.45;2.95;;;6.10;99.90;;;;;;5028802;28;20328;-61
2022/02/21 11:13:36;;;;;;;17.95;2.92;;;6.10;99.90;;;;;;5026361;28;20049;-61
2022/02/21 11:16:03;;;;;;;30.98;4.25;;;6.20;99.90;;;;;;5024051;28;20040;-62
2022/02/21 11:18:28;;;;;;;17.10;3.28;;;6.30;99.90;;;;;;5027815;28;20030;-63
2022/02/21 11:20:55;;;;;;;25.73;3.80;;;6.30;99.90;;;;;;5025809;28;20068;-61
2022/02/21 11:23:21;;;;;;;31.92;3.67;;;6.30;99.90;;;;;;5024807;28;20030;-62
2022/02/21 11:25:59;;;;;;;33.00;5.43;;;6.30;99.90;;;;;;5026658;28;20053;-61
2022/02/21 11:28:36;;;;;;;18.88;3.13;;;6.40;99.90;;;;;;5026479;28;20045;-62
2022/02/21 11:31:05;;;;;;;28.60;4.78;;;6.50;99.90;;;;;;5027341;28;20072;-62
2022/02/21 11:33:31;;;;;;;15.63;3.42;;;6.60;99.90;;;;;;5023274;28;20053;-61
2022/02/21 11:36:25;;;;;;;25.50;4.05;;;6.60;99.90;;;;;;5025083;28;20806;-61
2022/02/21 11:38:51;;;;;;;25.42;3.15;;;6.70;99.90;;;;;;5023520;28;20393;-62
2022/02/21 11:41:16;;;;;;;19.23;4.20;;;6.70;99.90;;;;;;5028396;28;20037;-61
2022/02/21 11:43:44;;;;;;;20.13;3.45;;;6.90;99.90;;;;;;5026717;28;20112;-61
2022/02/21 11:46:30;;;;;;;15.75;3.15;;;7.00;99.90;;;;;;5025219;28;20335;-63
2022/02/21 11:49:01;;;;;;;20.30;3.50;;;7.10;99.90;;;;;;5026656;28;20037;-63
2022/02/21 11:51:44;;;;;;;19.05;3.05;;;7.10;99.90;;;;;;5025867;28;20500;-61
2022/02/21 11:54:13;;;;;;;22.67;3.33;;;7.10;99.90;;;;;;5026320;28;20091;-61
2022/02/21 11:56:47;;;;;;;37.75;5.57;;;7.10;99.90;;;;;;5024564;28;20040;-61
2022/02/21 11:59:22;;;;;;;32.80;4.25;;;7.20;99.90;;;;;;5030260;28;20105;-61
2022/02/21 12:02:23;;;;;;;30.02;4.53;;;7.10;99.90;;;;;;5028952;28;20069;-61
2022/02/21 12:04:56;;;;;;;12.55;2.28;;;7.20;99.90;;;;;;4948695;29;20039;-60
2022/02/21 12:07:26;;;;;;;23.05;3.28;;;7.30;99.90;;;;;;5011895;28;20160;-61
2022/02/21 12:10:21;;;;;;;23.98;2.70;;;7.40;99.90;;;;;;5031524;28;20041;-61
2022/02/21 12:12:54;;;;;;;20.95;4.40;;;7.50;99.90;;;;;;5030928;28;20040;-61
2022/02/21 12:15:21;;;;;;;19.90;3.03;;;7.70;99.90;;;;;;5032658;28;20501;-61
2022/02/21 12:17:47;;;;;;;22.55;3.33;;;7.80;99.90;;;;;;5030878;28;20041;-62
2022/02/21 12:20:28;;;;;;;23.48;3.83;;;7.80;99.90;;;;;;5033380;28;20109;-63
2022/02/21 12:23:11;;;;;;;19.95;2.97;;;7.80;99.90;;;;;;5030379;28;20048;-61
2022/02/21 12:25:41;;;;;;;18.88;2.80;;;7.80;99.90;;;;;;5031186;28;20029;-65
2022/02/21 12:28:12;;;;;;;10.88;1.52;;;7.70;99.90;;;;;;5032275;28;20489;-61
2022/02/21 12:30:46;;;;;;;10.70;2.67;;;7.50;99.90;;;;;;5033575;28;20040;-62
2022/02/21 12:33:14;;;;;;;21.00;3.35;;;7.30;99.90;;;;;;5029113;28;20135;-61
2022/02/21 12:35:49;;;;;;;14.85;3.28;;;7.20;99.90;;;;;;5030578;28;20133;-60
2022/02/21 12:38:15;;;;;;;14.63;2.53;;;7.30;99.90;;;;;;5032166;28;20045;-62
2022/02/21 12:41:02;;;;;;;15.20;3.45;;;7.40;99.90;;;;;;5035434;28;20037;-61
2022/02/21 12:43:51;;;;;;;24.42;2.55;;;7.50;99.90;;;;;;5032310;28;20815;-61
2022/02/21 12:46:39;;;;;;;28.98;4.10;;;7.50;99.90;;;;;;5029754;28;20095;-61
2022/02/21 12:49:08;;;;;;;29.38;3.20;;;7.60;99.90;;;;;;5030893;28;20026;-61